KEAU

Chippewa Valley Regional Airport

Eau Claire, Wisconsin, USA
METAR KEAU 220656Z AUTO 00000KT 10SM CLR 06/04 A3033 RMK AO2 SLP277 T00560044
Observed Flight Rules
Sep-22 @ 06:56 UTC (26 minutes ago) Visual Flight Rules
Visibility Clouds
10 miles
Temperatures Readings
Current 6°C / 43°F
Dewpoint 4°C / 39°F
Humidity 87%
Altimeter 30.33" Hg
Pressure 1027.7 hPa
Elevation 276
METAR KEAU 220656Z AUTO 00000KT 10SM CLR 06/04 A3033 RMK AO2 SLP277 T00560044
Observed Flight Rules
Sep-22 @ 06:56 UTC
(26 minutes ago)
VFR
Clouds
Temperature Dewpoint
6°C / 43°F 4°C / 39°F
Humidity Altimeter Pressure
87% 30.33" Hg 1027.7 hPa